Time;durP1;ratioP1;P1;durP2;ratioP2;P2;SDS_P1;SDS_P2;PMS_P1;PMS_P2;Temp;Humidity;BMP_temperature;BMP_pressure;BME280_temperature;BME280_humidity;BME280_pressure;Samples;Min_cycle;Max_cycle;Signal;HPM_P1;HPM_P2
2023/10/02 00:00:20;;;;;;;4.88;4.18;;;20.20;99.90;;;;;;5092342;28;20050;-61
2023/10/02 00:02:47;;;;;;;5.82;4.57;;;20.00;99.90;;;;;;5092563;28;20094;-61
2023/10/02 00:05:40;;;;;;;4.97;4.47;;;19.90;99.90;;;;;;5092770;28;20039;-61
2023/10/02 00:08:00;;;;;;;5.75;4.30;;;19.90;99.90;;;;;;5092535;28;20476;-62
2023/10/02 00:10:29;;;;;;;4.85;4.30;;;19.70;99.90;;;;;;5092559;28;20081;-61
2023/10/02 00:12:59;;;;;;;5.97;4.65;;;19.60;99.90;;;;;;5092666;28;20043;-61
2023/10/02 00:15:25;;;;;;;4.60;4.20;;;19.60;99.90;;;;;;5092583;28;20024;-61
2023/10/02 00:17:51;;;;;;;4.93;4.47;;;19.50;99.90;;;;;;5092987;28;20028;-61
2023/10/02 00:20:23;;;;;;;5.95;4.60;;;19.40;99.90;;;;;;5092491;28;20490;-61
2023/10/02 00:22:50;;;;;;;6.15;4.53;;;19.40;99.90;;;;;;5091994;28;20494;-61
2023/10/02 00:25:21;;;;;;;5.18;4.65;;;19.30;99.90;;;;;;5091963;28;20425;-61
2023/10/02 00:27:50;;;;;;;5.00;4.50;;;19.30;99.90;;;;;;5092377;28;20096;-61
2023/10/02 00:30:20;;;;;;;5.38;4.40;;;19.30;99.90;;;;;;5092468;28;20062;-61
2023/10/02 00:32:47;;;;;;;4.55;4.15;;;19.20;99.90;;;;;;5092334;28;20032;-62
2023/10/02 00:35:14;;;;;;;4.90;4.40;;;19.10;99.90;;;;;;5092577;28;20561;-61
2023/10/02 00:37:44;;;;;;;5.55;4.30;;;19.00;99.90;;;;;;5092263;28;20028;-61
2023/10/02 00:40:22;;;;;;;5.13;4.35;;;19.00;99.90;;;;;;5091861;28;20485;-61
2023/10/02 00:42:55;;;;;;;4.82;4.30;;;19.00;99.90;;;;;;5091982;28;20450;-61
2023/10/02 00:45:59;;;;;;;6.25;4.40;;;19.00;99.90;;;;;;5092089;28;20055;-61
2023/10/02 00:48:28;;;;;;;6.55;4.40;;;19.00;99.90;;;;;;5091020;28;20024;-61
2023/10/02 00:50:59;;;;;;;4.38;3.92;;;19.00;99.90;;;;;;5091864;28;20490;-61
2023/10/02 00:53:42;;;;;;;5.03;3.90;;;19.00;99.90;;;;;;5091789;28;20032;-61
2023/10/02 00:56:24;;;;;;;4.50;4.10;;;19.10;99.90;;;;;;5091660;28;20506;-60
2023/10/02 00:58:55;;;;;;;6.33;4.27;;;19.20;99.90;;;;;;5091838;28;20106;-61
2023/10/02 01:01:22;;;;;;;5.50;4.45;;;19.40;99.90;;;;;;5091618;28;20021;-61
2023/10/02 01:04:24;;;;;;;5.47;4.20;;;19.50;99.90;;;;;;5091792;28;20035;-61
2023/10/02 01:09:26;;;;;;;5.50;3.85;;;19.60;99.90;;;;;;5090999;28;20063;-61
2023/10/02 01:11:57;;;;;;;4.70;4.28;;;19.60;99.90;;;;;;5091773;28;20123;-61
2023/10/02 01:17:11;;;;;;;4.93;4.30;;;19.60;99.90;;;;;;5091945;28;20149;-61
2023/10/02 01:19:52;;;;;;;5.35;4.00;;;19.50;99.90;;;;;;5091515;28;20386;-61
2023/10/02 01:22:26;;;;;;;4.38;3.97;;;19.50;99.90;;;;;;5091268;28;20561;-61
2023/10/02 01:25:06;;;;;;;;;;;19.50;99.90;;;;;;5091575;28;20485;-61
2023/10/02 01:27:40;;;;;;;4.43;4.03;;;19.60;99.90;;;;;;5091456;28;19949;-61
2023/10/02 01:30:17;;;;;;;4.25;3.85;;;19.70;99.90;;;;;;5091198;28;20024;-61
2023/10/02 01:33:11;;;;;;;4.65;4.13;;;19.60;99.90;;;;;;5091626;28;20036;-60
2023/10/02 01:35:51;;;;;;;4.95;4.07;;;19.40;99.90;;;;;;5091706;28;20055;-61
2023/10/02 01:38:31;;;;;;;4.40;3.92;;;19.30;99.90;;;;;;5090792;28;20484;-61
2023/10/02 01:41:05;;;;;;;4.43;3.97;;;19.20;99.90;;;;;;5091402;28;20026;-61
2023/10/02 01:43:42;;;;;;;5.15;3.67;;;19.10;99.90;;;;;;5091129;28;20504;-61
2023/10/02 01:46:10;;;;;;;5.95;3.88;;;19.00;99.90;;;;;;5091532;28;20024;-61
2023/10/02 01:48:37;;;;;;;4.95;4.10;;;18.90;99.90;;;;;;5090896;28;20028;-61
2023/10/02 01:51:20;;;;;;;4.35;3.83;;;18.90;99.90;;;;;;5090953;28;20040;-61
2023/10/02 01:53:54;;;;;;;5.35;4.18;;;18.90;99.90;;;;;;5090777;28;20093;-61
2023/10/02 01:56:22;;;;;;;4.68;4.18;;;18.90;99.90;;;;;;5091491;28;20555;-62
2023/10/02 01:58:49;;;;;;;4.88;3.70;;;18.90;99.90;;;;;;5090611;28;20052;-61
2023/10/02 02:01:15;;;;;;;4.10;3.70;;;18.90;99.90;;;;;;5090986;28;20024;-61
2023/10/02 02:03:48;;;;;;;4.60;4.20;;;18.90;99.90;;;;;;5091157;28;20020;-61
2023/10/02 02:06:20;;;;;;;5.22;4.13;;;18.90;99.90;;;;;;5090692;28;20025;-61
2023/10/02 02:08:53;;;;;;;7.30;3.80;;;18.90;99.90;;;;;;5090447;28;20056;-61
2023/10/02 02:11:23;;;;;;;5.20;4.40;;;18.90;99.90;;;;;;5090982;28;20081;-60
2023/10/02 02:13:58;;;;;;;5.05;3.97;;;18.90;99.90;;;;;;5090728;28;20028;-61
2023/10/02 02:16:33;;;;;;;5.45;4.10;;;18.80;99.90;;;;;;5091282;28;20128;-61
2023/10/02 02:19:06;;;;;;;6.07;4.30;;;18.90;99.90;;;;;;5090859;28;20028;-61
2023/10/02 02:21:32;;;;;;;4.65;4.18;;;18.90;99.90;;;;;;5090452;28;20028;-61
2023/10/02 02:24:06;;;;;;;6.35;4.45;;;18.90;99.90;;;;;;5091597;28;20100;-61
2023/10/02 02:26:39;;;;;;;4.82;3.90;;;18.90;99.90;;;;;;5094661;28;20036;-60
2023/10/02 02:29:16;;;;;;;6.20;4.30;;;18.90;99.90;;;;;;5095158;28;20154;-61
2023/10/02 02:31:42;;;;;;;4.93;4.13;;;19.00;99.90;;;;;;5094971;28;20032;-61
2023/10/02 02:34:16;;;;;;;6.28;4.10;;;19.10;99.90;;;;;;5093129;28;20036;-61
2023/10/02 02:36:46;;;;;;;5.03;4.30;;;19.20;99.90;;;;;;5094211;28;20028;-61
2023/10/02 02:39:16;;;;;;;4.43;4.00;;;19.20;99.90;;;;;;5094359;28;20536;-61
2023/10/02 02:41:43;;;;;;;5.05;4.22;;;19.30;99.90;;;;;;5094345;28;20045;-61
2023/10/02 02:44:29;;;;;;;4.47;4.07;;;19.30;99.90;;;;;;5094308;28;20401;-61
2023/10/02 02:46:55;;;;;;;5.78;4.32;;;19.30;99.90;;;;;;5094545;28;20094;-61
2023/10/02 02:49:23;;;;;;;4.65;4.20;;;19.40;99.90;;;;;;5094029;28;20032;-61
2023/10/02 02:51:50;;;;;;;4.82;4.20;;;19.30;99.90;;;;;;5093773;28;20040;-61
2023/10/02 02:54:15;;;;;;;5.07;4.05;;;19.30;99.90;;;;;;5094171;28;20024;-61
2023/10/02 02:56:41;;;;;;;6.97;4.38;;;19.40;99.90;;;;;;5094398;28;20032;-61
2023/10/02 02:59:08;;;;;;;5.20;4.50;;;19.30;99.90;;;;;;5094184;28;20530;-61
2023/10/02 03:01:34;;;;;;;4.95;4.25;;;19.30;99.90;;;;;;5093868;28;20043;-61
2023/10/02 03:04:11;;;;;;;5.70;4.40;;;19.40;99.90;;;;;;5093602;28;20497;-61
2023/10/02 03:06:37;;;;;;;5.95;4.50;;;19.20;99.90;;;;;;5093624;28;20490;-61
2023/10/02 03:09:06;;;;;;;6.95;4.50;;;18.90;99.90;;;;;;5094215;28;20043;-61
2023/10/02 03:11:32;;;;;;;5.25;4.22;;;18.70;99.90;;;;;;5093743;28;20089;-62
2023/10/02 03:14:14;;;;;;;6.35;4.43;;;18.60;99.90;;;;;;5093609;28;20031;-62
2023/10/02 03:16:44;;;;;;;5.25;4.28;;;18.50;99.90;;;;;;5093639;28;20031;-61
2023/10/02 03:19:13;;;;;;;8.05;4.47;;;18.40;99.90;;;;;;5093684;28;20030;-61
2023/10/02 03:21:42;;;;;;;5.97;4.47;;;18.30;99.90;;;;;;5093646;28;20024;-62
2023/10/02 03:24:08;;;;;;;5.93;4.60;;;18.30;99.90;;;;;;5093567;28;20082;-61
2023/10/02 03:29:02;;;;;;;5.50;4.15;;;18.20;99.90;;;;;;5094046;28;20049;-61
2023/10/02 03:31:51;;;;;;;7.07;4.75;;;18.10;99.90;;;;;;5093131;28;20111;-61
2023/10/02 03:34:30;;;;;;;5.70;4.78;;;18.20;99.90;;;;;;5093098;28;20086;-61
2023/10/02 03:37:24;;;;;;;5.63;4.53;;;18.20;99.90;;;;;;5091955;28;20032;-62
2023/10/02 03:39:52;;;;;;;5.57;5.07;;;18.10;99.90;;;;;;5092977;28;20056;-61
2023/10/02 03:42:22;;;;;;;5.45;4.38;;;18.10;99.90;;;;;;5093266;28;20161;-61
2023/10/02 03:44:54;;;;;;;5.75;5.10;;;18.10;99.90;;;;;;5093611;28;20056;-61
2023/10/02 03:47:20;;;;;;;6.28;5.20;;;18.00;99.90;;;;;;5093026;28;20440;-61
2023/10/02 03:49:46;;;;;;;7.30;4.80;;;18.10;99.90;;;;;;5092778;28;20036;-61
2023/10/02 03:52:21;;;;;;;6.68;5.22;;;18.10;99.90;;;;;;5093012;28;20388;-61
2023/10/02 03:54:49;;;;;;;6.55;5.22;;;18.20;99.90;;;;;;5092933;28;20602;-61
2023/10/02 04:00:13;;;;;;;6.45;5.28;;;18.20;99.90;;;;;;5091935;28;20038;-61
2023/10/02 04:02:43;;;;;;;7.75;6.00;;;18.00;99.90;;;;;;5092459;28;20098;-61
2023/10/02 04:05:09;;;;;;;7.53;5.47;;;18.20;99.90;;;;;;5093201;28;20028;-61
2023/10/02 04:07:35;;;;;;;6.35;5.40;;;18.30;99.90;;;;;;5092690;28;20032;-61
2023/10/02 04:10:06;;;;;;;7.35;4.97;;;18.50;99.90;;;;;;5092631;28;20398;-61
2023/10/02 04:12:50;;;;;;;7.53;5.53;;;18.50;99.90;;;;;;5092915;28;20148;-61
2023/10/02 04:15:16;;;;;;;8.20;5.03;;;18.60;99.90;;;;;;5091557;28;20543;-61
2023/10/02 04:17:49;;;;;;;7.47;5.50;;;18.60;99.90;;;;;;5092180;28;20402;-62
2023/10/02 04:20:27;;;;;;;7.93;5.37;;;18.60;99.90;;;;;;5092703;28;20089;-61
2023/10/02 04:23:18;;;;;;;7.15;5.65;;;18.60;99.90;;;;;;5092652;28;20346;-61
2023/10/02 04:25:43;;;;;;;7.72;5.75;;;18.60;99.90;;;;;;5092313;28;20024;-61
2023/10/02 04:28:08;;;;;;;8.13;5.90;;;18.60;99.90;;;;;;5092375;28;20100;-60
2023/10/02 04:30:37;;;;;;;8.55;6.50;;;18.60;99.90;;;;;;5092123;28;20144;-61
2023/10/02 04:33:08;;;;;;;8.90;6.68;;;18.60;99.90;;;;;;5092405;28;20051;-62
2023/10/02 04:35:52;;;;;;;10.73;7.20;;;18.70;99.90;;;;;;5092053;28;20028;-61
2023/10/02 04:38:47;;;;;;;9.07;7.28;;;18.60;99.90;;;;;;5091878;28;20067;-62
2023/10/02 04:41:07;;;;;;;9.32;7.05;;;18.50;99.90;;;;;;5092506;28;20035;-61
2023/10/02 04:43:34;;;;;;;12.85;7.47;;;18.30;99.90;;;;;;5091927;28;20111;-61
2023/10/02 04:46:08;;;;;;;10.35;8.02;;;18.20;99.90;;;;;;5091644;28;20063;-61
2023/10/02 04:48:45;;;;;;;12.40;8.20;;;18.10;99.90;;;;;;5091538;28;20043;-61
2023/10/02 04:51:12;;;;;;;11.75;8.55;;;17.90;99.90;;;;;;5092262;28;20043;-62
2023/10/02 04:53:45;;;;;;;11.70;8.30;;;17.90;99.90;;;;;;5091881;28;20027;-62
2023/10/02 04:58:47;;;;;;;11.75;8.60;;;17.80;99.90;;;;;;5092070;28;20058;-61
2023/10/02 05:01:24;;;;;;;11.95;9.20;;;17.70;99.90;;;;;;5091278;28;20034;-61
2023/10/02 05:03:52;;;;;;;14.05;9.65;;;17.60;99.90;;;;;;5091580;28;20024;-61
2023/10/02 05:06:39;;;;;;;14.55;9.18;;;17.70;99.90;;;;;;5091734;28;20020;-61
2023/10/02 05:11:52;;;;;;;14.68;10.13;;;17.50;99.90;;;;;;5091587;28;20040;-61
2023/10/02 05:14:29;;;;;;;13.95;9.98;;;17.50;99.90;;;;;;5091425;28;20437;-61
2023/10/02 05:17:17;;;;;;;14.50;10.27;;;17.50;99.90;;;;;;5091196;28;20444;-61
2023/10/02 05:20:03;;;;;;;14.52;10.48;;;17.60;99.90;;;;;;5091322;28;20498;-62
2023/10/02 05:22:32;;;;;;;15.48;9.93;;;17.60;99.90;;;;;;5091359;28;20020;-62
2023/10/02 05:24:58;;;;;;;15.82;10.20;;;17.60;99.90;;;;;;5091344;28;20032;-62
2023/10/02 05:27:36;;;;;;;14.13;10.80;;;17.50;99.90;;;;;;5091309;28;20103;-62
2023/10/02 05:30:12;;;;;;;15.23;9.82;;;17.60;99.90;;;;;;5091435;28;20024;-62
2023/10/02 05:32:41;;;;;;;13.55;10.27;;;17.70;99.90;;;;;;5091267;28;20054;-62
2023/10/02 05:37:41;;;;;;;16.42;10.82;;;17.60;99.90;;;;;;5091366;28;20028;-62
2023/10/02 05:42:53;;;;;;;15.23;10.40;;;18.10;99.90;;;;;;5091230;28;20423;-61
2023/10/02 05:45:37;;;;;;;15.02;10.98;;;18.20;99.90;;;;;;5091159;28;20375;-62
2023/10/02 05:48:07;;;;;;;16.15;11.25;;;18.40;99.90;;;;;;5091041;28;20051;-62
2023/10/02 05:50:40;;;;;;;16.20;10.88;;;18.40;99.90;;;;;;5091394;28;20028;-61
2023/10/02 05:53:06;;;;;;;16.92;10.68;;;18.40;99.90;;;;;;5091070;28;20106;-62
2023/10/02 05:55:56;;;;;;;19.45;11.27;;;18.40;99.90;;;;;;5091012;28;20074;-61
2023/10/02 05:58:27;;;;;;;17.98;11.60;;;18.40;99.90;;;;;;5091126;28;20158;-62
2023/10/02 06:00:54;;;;;;;15.90;10.80;;;18.40;99.90;;;;;;5095575;28;20099;-62
2023/10/02 06:03:21;;;;;;;16.65;11.18;;;18.40;99.90;;;;;;5095034;28;20012;-62
2023/10/02 06:06:10;;;;;;;15.05;10.82;;;18.40;99.90;;;;;;5095137;28;20035;-61
2023/10/02 06:08:34;;;;;;;17.02;11.38;;;18.40;99.90;;;;;;5094959;28;20052;-63
2023/10/02 06:11:59;;;;;;;16.83;11.68;;;18.50;99.90;;;;;;5095021;28;20043;-62
2023/10/02 06:13:47;;;;;;;17.92;11.63;;;18.40;99.90;;;;;;5086966;28;20044;-62
2023/10/02 06:16:14;;;;;;;16.48;11.48;;;18.20;99.90;;;;;;5095159;28;20397;-62
2023/10/02 06:18:40;;;;;;;14.80;11.60;;;17.90;99.90;;;;;;5094818;28;20110;-62
2023/10/02 06:21:06;;;;;;;16.75;11.75;;;17.80;99.90;;;;;;5095191;28;20099;-62
2023/10/02 06:23:39;;;;;;;16.38;11.77;;;17.80;99.90;;;;;;5094704;28;20128;-62
2023/10/02 06:26:09;;;;;;;15.45;11.10;;;17.70;99.90;;;;;;5094591;28;20434;-62
2023/10/02 06:28:35;;;;;;;15.25;11.23;;;17.70;99.90;;;;;;5094245;28;20028;-62
2023/10/02 06:31:01;;;;;;;17.38;11.75;;;17.70;99.90;;;;;;5094628;28;20028;-61
2023/10/02 06:33:27;;;;;;;14.93;11.15;;;17.60;99.90;;;;;;5094885;28;20490;-62
2023/10/02 06:35:57;;;;;;;15.30;11.65;;;17.60;99.90;;;;;;5094436;28;20428;-62
2023/10/02 06:38:23;;;;;;;15.38;11.07;;;17.60;99.90;;;;;;5094833;28;20093;-62
2023/10/02 06:40:58;;;;;;;15.13;11.23;;;17.60;99.90;;;;;;5094457;28;20020;-62
2023/10/02 06:43:29;;;;;;;15.48;11.65;;;17.60;99.90;;;;;;5094037;28;20099;-61
2023/10/02 06:46:19;;;;;;;16.75;11.68;;;17.50;99.90;;;;;;5094200;28;20024;-62
2023/10/02 06:48:45;;;;;;;17.27;11.43;;;17.70;99.90;;;;;;5094165;28;20028;-62
2023/10/02 06:51:14;;;;;;;15.95;11.45;;;17.70;99.90;;;;;;5094002;28;20032;-62
2023/10/02 06:53:43;;;;;;;18.10;11.88;;;17.70;99.90;;;;;;5094197;28;20020;-61
2023/10/02 06:56:13;;;;;;;17.35;11.38;;;17.70;99.90;;;;;;5094422;28;20043;-62
2023/10/02 06:58:56;;;;;;;15.73;11.23;;;17.80;99.90;;;;;;5093783;28;20027;-62
2023/10/02 07:01:27;;;;;;;15.20;11.18;;;17.80;99.90;;;;;;5094067;28;20036;-62
2023/10/02 07:03:55;;;;;;;16.60;11.73;;;17.70;99.90;;;;;;5093783;28;20047;-62
2023/10/02 07:06:24;;;;;;;14.65;10.45;;;17.80;99.90;;;;;;5092927;28;20394;-62
2023/10/02 07:09:10;;;;;;;19.25;11.43;;;17.80;99.90;;;;;;5093581;28;20135;-61
2023/10/02 07:11:41;;;;;;;15.57;11.50;;;17.90;99.90;;;;;;5093136;28;20593;-62
2023/10/02 07:14:06;;;;;;;17.77;11.60;;;18.00;99.90;;;;;;5093753;28;20031;-61
2023/10/02 07:16:33;;;;;;;15.13;10.35;;;18.20;99.90;;;;;;5093758;28;20032;-61
2023/10/02 07:18:59;;;;;;;16.17;11.40;;;18.40;99.90;;;;;;5093946;28;20022;-61
2023/10/02 07:21:27;;;;;;;16.23;11.55;;;18.50;99.90;;;;;;5093675;28;20024;-62
2023/10/02 07:23:53;;;;;;;15.80;11.15;;;18.80;99.90;;;;;;5093590;28;20028;-62
2023/10/02 07:26:20;;;;;;;14.25;11.05;;;18.80;99.90;;;;;;5091814;28;20020;-61
2023/10/02 07:28:53;;;;;;;17.02;10.80;;;18.90;99.90;;;;;;5093886;28;20379;-61
2023/10/02 07:31:23;;;;;;;15.38;10.80;;;19.00;99.90;;;;;;5093694;28;20545;-61
2023/10/02 07:33:49;;;;;;;14.80;10.50;;;19.10;99.90;;;;;;5093344;28;20088;-61
2023/10/02 07:36:15;;;;;;;16.27;10.68;;;19.10;99.90;;;;;;5093245;28;20024;-61
2023/10/02 07:38:46;;;;;;;17.10;11.55;;;19.00;99.90;;;;;;5092996;28;20490;-61
2023/10/02 07:41:23;;;;;;;17.05;11.23;;;19.20;99.90;;;;;;5092989;28;20024;-61
2023/10/02 07:43:54;;;;;;;15.90;10.50;;;19.20;99.90;;;;;;5093441;28;20522;-61
2023/10/02 07:46:21;;;;;;;14.00;10.55;;;19.20;99.90;;;;;;5093605;28;20032;-60
2023/10/02 07:49:04;;;;;;;14.45;10.75;;;19.20;99.90;;;;;;5091739;28;20031;-60
2023/10/02 07:51:35;;;;;;;12.93;10.30;;;19.10;99.90;;;;;;5093071;28;20040;-61
2023/10/02 07:54:02;;;;;;;15.50;10.55;;;19.10;99.90;;;;;;5093360;28;20028;-61
2023/10/02 07:56:29;;;;;;;14.15;10.38;;;19.00;99.90;;;;;;5093030;28;20024;-61
2023/10/02 07:59:01;;;;;;;15.50;10.52;;;19.00;99.90;;;;;;5093167;28;20032;-59
2023/10/02 08:01:27;;;;;;;12.90;10.13;;;19.00;99.90;;;;;;5093273;28;20090;-60
2023/10/02 08:03:55;;;;;;;15.57;10.70;;;19.00;99.90;;;;;;5092778;28;20077;-60
2023/10/02 08:11:50;;;;;;;12.07;9.30;;;19.20;99.90;;;;;;5092643;28;20456;-60
2023/10/02 08:17:27;;;;;;;12.20;9.82;;;19.30;99.90;;;;;;5092858;28;19915;-59
2023/10/02 08:19:56;;;;;;;12.73;8.73;;;19.40;99.90;;;;;;5092313;28;20035;-60
2023/10/02 08:22:44;;;;;;;;;;;19.40;99.90;;;;;;5092250;28;20024;-60
2023/10/02 08:25:13;;;;;;;13.18;9.75;;;19.50;99.90;;;;;;5092127;28;19904;-60
2023/10/02 08:27:55;;;;;;;12.63;9.38;;;19.60;99.90;;;;;;5092350;28;20032;-60
2023/10/02 08:30:28;;;;;;;12.48;10.10;;;19.70;99.90;;;;;;5092303;28;20020;-60
2023/10/02 08:33:05;;;;;;;11.57;9.00;;;19.70;99.90;;;;;;5092707;28;20428;-59
2023/10/02 08:35:41;;;;;;;15.27;9.77;;;19.90;99.90;;;;;;5092232;28;20024;-60
2023/10/02 08:38:07;;;;;;;14.30;9.57;;;19.90;99.90;;;;;;5091868;28;20084;-60
2023/10/02 08:40:40;;;;;;;12.65;9.35;;;20.00;99.90;;;;;;5092225;28;20028;-60
2023/10/02 08:43:06;;;;;;;11.80;9.02;;;20.10;99.90;;;;;;5092307;28;20024;-60
2023/10/02 08:45:33;;;;;;;15.25;9.57;;;20.20;99.90;;;;;;5092091;28;20058;-60
2023/10/02 08:48:07;;;;;;;13.90;9.02;;;20.40;99.90;;;;;;5091904;28;20123;-60
2023/10/02 08:50:34;;;;;;;11.70;8.50;;;20.50;99.90;;;;;;5091935;28;20031;-60
2023/10/02 08:53:04;;;;;;;11.90;8.88;;;20.70;99.90;;;;;;5091951;28;20035;-60
2023/10/02 08:55:34;;;;;;;12.35;8.70;;;21.00;99.90;;;;;;5091843;28;20452;-60
2023/10/02 09:06:41;;;;;;;12.15;8.45;;;21.50;99.90;;;;;;5091393;28;20024;-58
2023/10/02 09:09:21;;;;;;;10.25;8.02;;;21.60;99.90;;;;;;5091564;28;20399;-59
2023/10/02 09:11:52;;;;;;;12.07;7.95;;;21.70;99.90;;;;;;5091535;28;20032;-59
2023/10/02 09:16:46;;;;;;;11.60;7.88;;;21.90;99.90;;;;;;5090879;28;20568;-60
2023/10/02 09:19:31;;;;;;;12.38;8.13;;;22.00;99.90;;;;;;5091546;28;20080;-60
2023/10/02 09:22:06;;;;;;;13.00;8.40;;;22.10;99.90;;;;;;5090988;28;20048;-60
2023/10/02 09:24:36;;;;;;;12.18;7.32;;;22.10;99.90;;;;;;5091353;28;20080;-60
2023/10/02 09:27:25;;;;;;;11.95;7.72;;;22.00;99.90;;;;;;5091460;28;20514;-61
2023/10/02 09:32:47;;;;;;;10.18;7.80;;;22.00;99.90;;;;;;5090853;28;20070;-61
2023/10/02 09:46:35;;;;;;;9.38;7.20;;;22.00;99.90;;;;;;5107863;27;20735;-64
2023/10/02 09:49:19;;;;;;;8.80;6.68;;;22.60;99.90;;;;;;5108151;28;20055;-65
2023/10/02 09:52:15;;;;;;;10.18;7.43;;;22.70;99.90;;;;;;5108605;28;20028;-65
2023/10/02 09:55:00;;;;;;;8.43;7.15;;;22.80;99.90;;;;;;5107997;28;20031;-66
2023/10/02 09:57:31;;;;;;;9.40;6.85;;;23.00;99.90;;;;;;5108503;28;20020;-66
2023/10/02 09:59:57;;;;;;;11.13;8.05;;;23.20;99.90;;;;;;5108647;28;20027;-66
2023/10/02 10:05:02;;;;;;;10.70;8.00;;;23.20;99.90;;;;;;5108618;28;20028;-66
2023/10/02 10:07:46;;;;;;;10.13;7.35;;;23.40;99.90;;;;;;5108741;28;20508;-66
2023/10/02 10:10:47;;;;;;;10.52;7.47;;;23.50;99.90;;;;;;5108327;28;20020;-66
2023/10/02 10:13:37;;;;;;;14.15;8.23;;;23.70;99.90;;;;;;5108116;28;20028;-66
2023/10/02 10:16:20;;;;;;;9.73;7.03;;;23.70;99.90;;;;;;5108059;28;20036;-66
2023/10/02 10:21:56;;;;;;;10.80;7.25;;;23.90;99.90;;;;;;5108205;28;20390;-66
2023/10/02 10:27:39;;;;;;;10.65;7.03;;;24.30;99.90;;;;;;5108021;28;20032;-66
2023/10/02 10:30:39;;;;;;;10.05;6.82;;;24.40;99.90;;;;;;5108053;28;20373;-66
2023/10/02 10:36:08;;;;;;;9.80;6.90;;;24.70;99.90;;;;;;5107992;28;20117;-65
2023/10/02 10:38:34;;;;;;;10.13;6.68;;;25.10;99.90;;;;;;5106701;28;20039;-64
2023/10/02 10:41:06;;;;;;;;;;;25.30;99.90;;;;;;5088574;28;20051;-65
2023/10/02 10:43:55;;;;;;;8.90;6.20;;;25.30;99.90;;;;;;5087522;28;19920;-65
2023/10/02 10:46:31;;;;;;;8.35;5.72;;;25.40;99.90;;;;;;5079408;28;20044;-65
2023/10/02 10:49:07;;;;;;;8.20;6.20;;;25.60;99.90;;;;;;5074002;28;20028;-66
2023/10/02 10:51:37;;;;;;;6.95;5.63;;;25.70;99.90;;;;;;5073874;28;20028;-66
2023/10/02 10:54:53;;;;;;;7.53;5.57;;;25.90;99.90;;;;;;5073528;28;20032;-64
2023/10/02 10:57:21;;;;;;;9.38;5.53;;;26.00;99.90;;;;;;5065756;28;20040;-65
2023/10/02 11:00:25;;;;;;;7.38;5.53;;;26.10;99.90;;;;;;5073312;28;20032;-65
2023/10/02 11:03:08;;;;;;;8.38;5.53;;;26.10;99.90;;;;;;5073898;28;20119;-65
2023/10/02 11:05:35;;;;;;;6.97;5.43;;;26.10;99.90;;;;;;5073362;28;20382;-64
2023/10/02 11:08:26;;;;;;;6.82;5.13;;;26.10;99.90;;;;;;5073232;28;20104;-66
2023/10/02 11:11:11;;;;;;;8.52;5.28;;;26.20;99.90;;;;;;5072513;28;20055;-63
2023/10/02 11:13:50;;;;;;;7.78;5.45;;;26.30;99.90;;;;;;5079735;28;20509;-65
2023/10/02 11:16:36;;;;;;;8.15;5.95;;;26.40;99.90;;;;;;5093359;28;20502;-65
2023/10/02 11:19:21;;;;;;;8.82;5.25;;;26.30;99.90;;;;;;5093582;28;20024;-65
2023/10/02 11:22:14;;;;;;;8.63;5.45;;;26.60;99.90;;;;;;5092869;28;20505;-65
2023/10/02 11:24:44;;;;;;;7.25;5.18;;;26.70;99.90;;;;;;5093402;28;20031;-65
2023/10/02 11:27:17;;;;;;;8.73;5.45;;;26.70;99.90;;;;;;5093131;28;20455;-65
2023/10/02 11:30:02;;;;;;;8.40;5.70;;;26.90;99.90;;;;;;5093390;28;20047;-65
2023/10/02 11:32:54;;;;;;;7.22;5.63;;;27.00;99.90;;;;;;5093612;28;20106;-65
2023/10/02 11:35:29;;;;;;;6.40;5.57;;;27.40;99.90;;;;;;5092712;28;20408;-65
2023/10/02 11:37:58;;;;;;;7.97;6.20;;;27.40;99.90;;;;;;5093520;28;20024;-64
2023/10/02 11:40:25;;;;;;;7.18;6.47;;;27.40;99.90;;;;;;5080723;28;20394;-65
2023/10/02 11:42:58;;;;;;;8.00;5.75;;;27.50;99.90;;;;;;5072878;28;20134;-65
2023/10/02 11:45:26;;;;;;;7.22;5.68;;;27.80;99.90;;;;;;5072469;28;20124;-64
2023/10/02 11:47:52;;;;;;;6.93;5.40;;;28.00;99.90;;;;;;5073115;28;20025;-65
2023/10/02 11:50:18;;;;;;;5.38;4.55;;;27.90;99.90;;;;;;5071912;28;20021;-65
2023/10/02 11:52:44;;;;;;;4.63;4.00;;;28.10;99.90;;;;;;5084736;28;20486;-65
2023/10/02 11:55:10;;;;;;;6.55;4.35;;;28.50;99.90;;;;;;5092597;28;20529;-65
2023/10/02 11:57:37;;;;;;;6.30;4.35;;;28.50;99.90;;;;;;5091409;28;20070;-65
2023/10/02 12:00:08;;;;;;;5.57;4.47;;;28.50;99.90;;;;;;5091851;28;20020;-65
2023/10/02 12:02:35;;;;;;;5.43;4.40;;;28.60;99.90;;;;;;5091904;28;20028;-64
2023/10/02 12:05:01;;;;;;;7.47;4.38;;;28.80;99.90;;;;;;5091793;28;20059;-66
2023/10/02 12:07:26;;;;;;;5.20;4.07;;;28.90;99.90;;;;;;5091864;28;20603;-65
2023/10/02 12:09:53;;;;;;;6.50;3.90;;;29.30;99.90;;;;;;5092048;28;20112;-64
2023/10/02 12:12:19;;;;;;;6.18;4.13;;;29.40;99.90;;;;;;5092689;28;20107;-64
2023/10/02 12:14:45;;;;;;;6.53;3.85;;;29.30;99.90;;;;;;5092712;28;20470;-65
2023/10/02 12:17:14;;;;;;;7.93;4.00;;;29.30;99.90;;;;;;5092272;28;20020;-65
2023/10/02 12:19:41;;;;;;;4.10;3.70;;;29.40;99.90;;;;;;5092018;28;20085;-66
2023/10/02 12:22:07;;;;;;;7.00;3.47;;;29.50;99.90;;;;;;5092316;28;20028;-66
2023/10/02 12:24:37;;;;;;;8.38;3.63;;;29.80;99.90;;;;;;5091989;28;20028;-65
2023/10/02 12:27:10;;;;;;;6.60;3.80;;;29.80;99.90;;;;;;5092143;28;20024;-65
2023/10/02 12:29:36;;;;;;;6.30;3.63;;;29.80;99.90;;;;;;5092061;28;20040;-65
2023/10/02 12:32:03;;;;;;;9.55;4.00;;;29.90;99.90;;;;;;5092452;28;20103;-65
2023/10/02 12:34:29;;;;;;;7.68;3.40;;;29.70;99.90;;;;;;5091460;28;20024;-65
2023/10/02 12:36:55;;;;;;;4.10;3.50;;;29.70;99.90;;;;;;5091845;28;20043;-65
2023/10/02 12:39:22;;;;;;;4.15;3.30;;;29.90;99.90;;;;;;5092149;28;20505;-65
2023/10/02 12:41:48;;;;;;;4.30;3.40;;;30.00;99.90;;;;;;5091736;28;20035;-65
2023/10/02 12:44:14;;;;;;;6.30;3.40;;;30.20;99.90;;;;;;5091734;28;20024;-65
2023/10/02 12:46:43;;;;;;;10.40;3.47;;;30.20;99.90;;;;;;5092217;28;20099;-65
2023/10/02 12:49:15;;;;;;;4.13;3.28;;;30.20;99.90;;;;;;5091521;28;20399;-64
2023/10/02 12:51:41;;;;;;;5.68;3.58;;;30.40;99.90;;;;;;5091462;28;20044;-64
2023/10/02 12:54:07;;;;;;;5.22;3.15;;;30.50;99.90;;;;;;5091014;28;20080;-64
2023/10/02 12:56:33;;;;;;;5.93;3.38;;;30.30;99.90;;;;;;5090319;28;20032;-64
2023/10/02 12:58:59;;;;;;;5.97;3.45;;;30.50;99.90;;;;;;5091645;28;20432;-64
2023/10/02 13:01:29;;;;;;;6.72;3.22;;;30.60;99.90;;;;;;5091625;28;20084;-64
2023/10/02 13:03:56;;;;;;;3.80;3.05;;;30.80;99.90;;;;;;5091619;28;20073;-64
2023/10/02 13:06:26;;;;;;;5.20;3.30;;;30.70;99.90;;;;;;5091571;28;20047;-64
2023/10/02 13:08:55;;;;;;;3.97;3.38;;;30.60;99.90;;;;;;5091430;28;20500;-64
2023/10/02 13:11:21;;;;;;;4.35;3.25;;;30.70;99.90;;;;;;5091598;28;20028;-64
2023/10/02 13:13:49;;;;;;;7.82;3.65;;;30.80;99.90;;;;;;5091400;28;20024;-64
2023/10/02 13:16:15;;;;;;;4.65;3.80;;;31.10;99.90;;;;;;5091593;28;20036;-64
2023/10/02 13:18:43;;;;;;;5.28;3.55;;;31.10;99.90;;;;;;5091059;28;20024;-64
2023/10/02 13:21:14;;;;;;;5.00;3.30;;;31.30;99.90;;;;;;5091693;28;20038;-65
2023/10/02 13:23:40;;;;;;;4.45;3.38;;;31.40;99.90;;;;;;5090122;28;20398;-64
2023/10/02 13:26:10;;;;;;;3.72;3.25;;;31.50;99.90;;;;;;5091368;28;20036;-64
2023/10/02 13:28:37;;;;;;;5.75;3.85;;;31.50;99.90;;;;;;5091280;28;20077;-64
2023/10/02 13:31:14;;;;;;;5.55;3.58;;;31.50;99.90;;;;;;5091316;28;20048;-64
2023/10/02 13:33:40;;;;;;;7.68;3.42;;;31.50;99.90;;;;;;5091133;28;20044;-64
2023/10/02 13:36:10;;;;;;;6.45;3.70;;;31.60;99.90;;;;;;5091452;28;20382;-64
2023/10/02 13:38:36;;;;;;;7.55;3.72;;;31.90;99.90;;;;;;5091234;28;20050;-64
2023/10/02 13:41:11;;;;;;;5.80;3.90;;;31.80;99.90;;;;;;5090991;28;20035;-64
2023/10/02 13:43:41;;;;;;;4.38;3.40;;;32.10;99.90;;;;;;5091633;28;20020;-64
2023/10/02 13:46:16;;;;;;;4.03;3.25;;;32.20;99.90;;;;;;5090557;28;20480;-64
2023/10/02 13:48:46;;;;;;;5.00;3.03;;;32.30;99.90;;;;;;5091155;28;20498;-64
2023/10/02 13:51:13;;;;;;;4.07;3.40;;;32.40;99.90;;;;;;5091102;28;20107;-64
2023/10/02 13:53:40;;;;;;;4.55;3.08;;;32.20;99.90;;;;;;5091488;28;20020;-65
2023/10/02 13:56:15;;;;;;;14.63;12.23;;;32.50;99.90;;;;;;5091150;28;20043;-64
2023/10/02 13:58:42;;;;;;;9.18;8.20;;;32.70;99.90;;;;;;5091323;28;20506;-65
2023/10/02 14:01:09;;;;;;;7.28;4.55;;;32.80;99.90;;;;;;5090453;28;20099;-65
2023/10/02 14:03:36;;;;;;;4.38;3.42;;;32.80;99.90;;;;;;5091003;28;20432;-65
2023/10/02 14:06:07;;;;;;;5.38;3.08;;;32.80;99.90;;;;;;5091336;28;20124;-64
2023/10/02 14:08:34;;;;;;;7.90;3.33;;;33.00;99.90;;;;;;5090872;28;20028;-64
2023/10/02 14:11:01;;;;;;;3.60;3.30;;;33.00;99.90;;;;;;5091044;28;20589;-64
2023/10/02 14:13:27;;;;;;;3.60;3.30;;;32.90;99.90;;;;;;5091386;28;20059;-64